Time;durP1;ratioP1;P1;durP2;ratioP2;P2;SDS_P1;SDS_P2;PMS_P1;PMS_P2;Temp;Humidity;BMP_temperature;BMP_pressure;BME280_temperature;BME280_humidity;BME280_pressure;Samples;Min_cycle;Max_cycle;Signal;HPM_P1;HPM_P2
2022/08/20 06:30:50;;;;;;;10.07;9.10;;;;;;;;;;10512817;28;20466;-83
2022/08/20 06:35:51;;;;;;;5.47;4.97;;;;;;;;;;10509815;28;20025;-82
2022/08/20 06:40:52;;;;;;;3.20;2.80;;;;;;;;;;10501008;28;20519;-81
2022/08/20 06:45:56;;;;;;;3.53;2.90;;;;;;;;;;10502396;28;20064;-82
2022/08/20 06:51:00;;;;;;;4.60;4.15;;;;;;;;;;10499709;28;20085;-81
2022/08/20 06:56:01;;;;;;;5.07;4.35;;;;;;;;;;10501706;28;20033;-83
2022/08/20 07:01:03;;;;;;;7.88;4.97;;;;;;;;;;10504456;28;20478;-82
2022/08/20 07:06:04;;;;;;;5.95;5.40;;;;;;;;;;10512737;28;20035;-81
2022/08/20 07:11:07;;;;;;;6.43;5.80;;;;;;;;;;10500893;28;20484;-83
2022/08/20 07:16:08;;;;;;;11.85;10.63;;;;;;;;;;10501551;28;20119;-82
2022/08/20 07:21:11;;;;;;;10.05;9.02;;;;;;;;;;10498519;28;20021;-81
2022/08/20 07:26:12;;;;;;;10.75;9.75;;;;;;;;;;10502801;28;20024;-82
2022/08/20 07:36:33;;;;;;;8.35;7.65;;;;;;;;;;10515218;28;20032;-83
2022/08/20 07:41:34;;;;;;;9.13;8.23;;;;;;;;;;10497602;28;20037;-82
2022/08/20 07:46:36;;;;;;;6.95;6.25;;;;;;;;;;10496789;28;20035;-83
2022/08/20 07:51:37;;;;;;;6.03;5.30;;;;;;;;;;10496846;28;20032;-83
2022/08/20 07:56:38;;;;;;;8.80;8.00;;;;;;;;;;10496124;28;20032;-82
2022/08/20 08:01:40;;;;;;;7.93;6.22;;;;;;;;;;10494448;28;20178;-82
2022/08/20 08:06:44;;;;;;;6.90;6.20;;;;;;;;;;10493819;28;20628;-82
2022/08/20 08:11:48;;;;;;;8.60;7.80;;;;;;;;;;10492485;28;20024;-82
2022/08/20 08:16:50;;;;;;;5.97;3.70;;;;;;;;;;10490047;28;20035;-81
2022/08/20 08:21:56;;;;;;;3.80;3.45;;;;;;;;;;10490365;28;20120;-82
2022/08/20 08:26:57;;;;;;;6.55;5.88;;;;;;;;;;10475626;28;20044;-78
2022/08/20 08:32:00;;;;;;;4.15;3.58;;;;;;;;;;10499329;28;20039;-79
2022/08/20 08:37:02;;;;;;;3.70;3.35;;;;;;;;;;10515270;28;20045;-79
2022/08/20 08:42:28;;;;;;;4.32;3.10;;;;;;;;;;10514060;28;20082;-79
2022/08/20 08:47:33;;;;;;;3.15;2.85;;;;;;;;;;10492562;28;20020;-82
2022/08/20 08:52:36;;;;;;;3.90;3.55;;;;;;;;;;10491698;28;20023;-81
2022/08/20 08:57:42;;;;;;;6.53;5.20;;;;;;;;;;10491541;28;20132;-82
2022/08/20 09:02:55;;;;;;;6.10;5.45;;;;;;;;;;10496287;28;20025;-82
2022/08/20 09:07:59;;;;;;;6.47;5.78;;;;;;;;;;10492666;28;20024;-82
2022/08/20 09:13:02;;;;;;;4.35;3.78;;;;;;;;;;10475258;28;20042;-80
2022/08/20 09:18:10;;;;;;;4.10;3.15;;;;;;;;;;10512166;28;20052;-81
2022/08/20 09:23:33;;;;;;;2.80;2.53;;;;;;;;;;10519485;28;20021;-80
2022/08/20 09:28:59;;;;;;;3.88;2.80;;;;;;;;;;10501493;28;20037;-81
2022/08/20 09:34:04;;;;;;;4.72;3.47;;;;;;;;;;10497046;28;20056;-80
2022/08/20 09:40:09;;;;;;;4.53;4.13;;;;;;;;;;10516754;28;20107;-80
2022/08/20 09:44:46;;;;;;;4.78;4.25;;;;;;;;;;10498589;28;20024;-79
2022/08/20 09:50:07;;;;;;;;;;;;;;;;;;;;;
2022/08/20 09:55:17;;;;;;;4.43;3.60;;;;;;;;;;10520334;28;20032;-81
2022/08/20 10:00:47;;;;;;;5.70;5.00;;;;;;;;;;10515091;28;20407;-82
2022/08/20 10:06:23;;;;;;;;;;;;;;;;;;;;;
2022/08/20 10:11:34;;;;;;;4.75;4.30;;;;;;;;;;10468934;28;20036;-80
2022/08/20 10:16:35;;;;;;;4.45;3.97;;;;;;;;;;10455243;28;20052;-80
2022/08/20 10:21:37;;;;;;;6.25;3.88;;;;;;;;;;10460611;28;20064;-81
2022/08/20 10:26:42;;;;;;;8.68;7.32;;;;;;;;;;10459792;28;20044;-80
2022/08/20 10:31:43;;;;;;;11.70;10.52;;;;;;;;;;10459898;28;20055;-81
2022/08/20 10:37:07;;;;;;;12.38;11.25;;;;;;;;;;10464510;28;20515;-81
2022/08/20 10:42:14;;;;;;;10.13;9.10;;;;;;;;;;10475656;28;20029;-81
2022/08/20 10:47:28;;;;;;;13.05;11.63;;;;;;;;;;10473315;28;20032;-81
2022/08/20 10:52:42;;;;;;;12.02;10.77;;;;;;;;;;10470251;28;20021;-79
2022/08/20 10:57:43;;;;;;;15.18;13.38;;;;;;;;;;10468222;28;20024;-81
2022/08/20 11:02:45;;;;;;;15.10;13.50;;;;;;;;;;10519677;28;20515;-81
2022/08/20 11:07:46;;;;;;;15.98;14.30;;;;;;;;;;10501998;28;20029;-81
2022/08/20 11:12:47;;;;;;;11.73;10.55;;;;;;;;;;10504870;28;20035;-79
2022/08/20 11:17:55;;;;;;;11.60;10.27;;;;;;;;;;10506761;28;20025;-81
2022/08/20 11:22:56;;;;;;;11.55;10.43;;;;;;;;;;10504504;28;20031;-81
2022/08/20 11:28:09;;;;;;;14.07;11.65;;;;;;;;;;10503768;28;20036;-80
2022/08/20 11:33:10;;;;;;;15.40;13.80;;;;;;;;;;10503737;28;20047;-79
2022/08/20 11:38:11;;;;;;;13.25;10.98;;;;;;;;;;10500674;28;20081;-80
2022/08/20 11:43:12;;;;;;;9.48;8.55;;;;;;;;;;10501244;28;20020;-80
2022/08/20 11:48:36;;;;;;;11.80;9.43;;;;;;;;;;10518856;28;20036;-79
2022/08/20 11:53:39;;;;;;;10.07;8.55;;;;;;;;;;10501134;28;20024;-79
2022/08/20 11:58:41;;;;;;;9.38;7.45;;;;;;;;;;10500368;28;20479;-79
2022/08/20 12:03:42;;;;;;;7.63;6.68;;;;;;;;;;10488475;28;20025;-79
2022/08/20 12:08:43;;;;;;;8.82;7.05;;;;;;;;;;10475329;28;20052;-78
2022/08/20 12:13:44;;;;;;;9.32;7.53;;;;;;;;;;10458379;28;20029;-81
2022/08/20 12:18:45;;;;;;;7.65;6.95;;;;;;;;;;10461411;28;20031;-79
2022/08/20 12:23:46;;;;;;;9.45;6.90;;;;;;;;;;10470962;28;20092;-80
2022/08/20 12:28:47;;;;;;;7.07;4.25;;;;;;;;;;10465896;28;20045;-83
2022/08/20 12:33:49;;;;;;;5.93;4.63;;;;;;;;;;10462726;28;20033;-83
2022/08/20 12:38:50;;;;;;;7.95;4.10;;;;;;;;;;10458730;28;20021;-82
2022/08/20 12:43:51;;;;;;;8.57;6.07;;;;;;;;;;10478333;28;20494;-83
2022/08/20 12:48:52;;;;;;;5.90;4.10;;;;;;;;;;10478163;28;20436;-83
2022/08/20 12:53:53;;;;;;;8.70;3.63;;;;;;;;;;10475534;28;20021;-83
2022/08/20 12:58:54;;;;;;;6.40;3.35;;;;;;;;;;10458167;28;20060;-82
2022/08/20 13:03:55;;;;;;;6.05;2.95;;;;;;;;;;10464365;28;20049;-84
2022/08/20 13:08:56;;;;;;;5.00;2.70;;;;;;;;;;10458187;28;20048;-84
2022/08/20 13:13:57;;;;;;;5.28;2.60;;;;;;;;;;10474159;28;20089;-83
2022/08/20 13:18:58;;;;;;;5.32;3.00;;;;;;;;;;10456426;28;20060;-83
2022/08/20 13:24:00;;;;;;;3.90;2.33;;;;;;;;;;10459754;28;20021;-82
2022/08/20 13:29:01;;;;;;;7.63;2.83;;;;;;;;;;10458772;28;20043;-82
2022/08/20 13:34:02;;;;;;;4.15;2.20;;;;;;;;;;10460353;28;20029;-83
2022/08/20 13:39:04;;;;;;;4.40;2.72;;;;;;;;;;10474955;28;20036;-82
2022/08/20 13:44:06;;;;;;;5.70;2.38;;;;;;;;;;10475397;28;20080;-83
2022/08/20 13:49:07;;;;;;;5.03;2.80;;;;;;;;;;10457701;28;20032;-83
2022/08/20 13:54:11;;;;;;;3.80;2.40;;;;;;;;;;10456919;28;20444;-82
2022/08/20 13:59:12;;;;;;;5.53;2.55;;;;;;;;;;10457709;28;20029;-83
2022/08/20 14:04:13;;;;;;;6.13;2.97;;;;;;;;;;10454400;28;20056;-82
2022/08/20 14:09:14;;;;;;;5.45;2.75;;;;;;;;;;10474366;28;20025;-82
2022/08/20 14:14:15;;;;;;;3.45;2.40;;;;;;;;;;10457964;28;20055;-82
2022/08/20 14:19:16;;;;;;;5.53;2.50;;;;;;;;;;10458121;28;20032;-80
2022/08/20 14:24:17;;;;;;;5.82;2.65;;;;;;;;;;10456190;28;20061;-82
2022/08/20 14:29:21;;;;;;;4.43;2.45;;;;;;;;;;10455236;28;20063;-81
2022/08/20 14:34:22;;;;;;;5.90;2.40;;;;;;;;;;10455413;28;20025;-82
2022/08/20 14:39:27;;;;;;;8.23;2.88;;;;;;;;;;10457103;28;20029;-84
2022/08/20 14:44:30;;;;;;;6.35;2.40;;;;;;;;;;10462705;28;20021;-81
2022/08/20 14:49:31;;;;;;;4.82;2.20;;;;;;;;;;10459900;28;20025;-82
2022/08/20 14:54:33;;;;;;;4.20;2.30;;;;;;;;;;10461733;28;20083;-82
2022/08/20 14:59:36;;;;;;;8.18;2.45;;;;;;;;;;10478513;28;20107;-83
2022/08/20 15:04:37;;;;;;;8.02;3.67;;;;;;;;;;10476936;28;20021;-82
2022/08/20 15:09:38;;;;;;;8.63;5.13;;;;;;;;;;10460223;28;20540;-82
2022/08/20 15:14:39;;;;;;;7.22;3.00;;;;;;;;;;10459286;28;20060;-82
2022/08/20 15:19:41;;;;;;;8.00;3.10;;;;;;;;;;10460066;28;20040;-83
2022/08/20 15:24:42;;;;;;;6.55;2.40;;;;;;;;;;10460161;28;20021;-82
2022/08/20 15:29:43;;;;;;;5.38;2.40;;;;;;;;;;10460550;28;20037;-82
2022/08/20 15:34:44;;;;;;;4.85;2.50;;;;;;;;;;10461603;28;20107;-81
2022/08/20 15:39:45;;;;;;;4.20;2.30;;;;;;;;;;10462414;28;20029;-82
2022/08/20 15:44:47;;;;;;;5.38;2.63;;;;;;;;;;10462536;28;20061;-82
2022/08/20 15:49:50;;;;;;;8.43;2.85;;;;;;;;;;10479621;28;20029;-81
2022/08/20 15:54:51;;;;;;;5.47;2.15;;;;;;;;;;10480740;28;20139;-82
2022/08/20 16:00:00;;;;;;;5.68;2.35;;;;;;;;;;10482177;28;20036;-82
2022/08/20 16:05:12;;;;;;;6.15;2.72;;;;;;;;;;10465062;28;20051;-83
2022/08/20 16:10:14;;;;;;;3.55;1.90;;;;;;;;;;10466318;28;20132;-83
2022/08/20 16:15:20;;;;;;;7.07;2.30;;;;;;;;;;10467837;28;20021;-82
2022/08/20 16:20:26;;;;;;;4.72;2.10;;;;;;;;;;10477448;28;20036;-81
2022/08/20 16:25:30;;;;;;;5.20;2.30;;;;;;;;;;10482744;28;20035;-79
2022/08/20 16:30:36;;;;;;;5.82;2.70;;;;;;;;;;10490632;28;20091;-81
2022/08/20 16:35:42;;;;;;;7.32;2.67;;;;;;;;;;10468775;28;20029;-81
2022/08/20 16:40:48;;;;;;;6.53;2.10;;;;;;;;;;10463292;28;20025;-81
2022/08/20 16:45:59;;;;;;;6.55;2.30;;;;;;;;;;10467307;28;20021;-81
2022/08/20 16:51:10;;;;;;;6.72;3.08;;;;;;;;;;10475729;28;20029;-81
2022/08/20 16:56:11;;;;;;;5.32;2.60;;;;;;;;;;10475379;28;20151;-80
2022/08/20 17:01:14;;;;;;;4.53;2.10;;;;;;;;;;10477090;28;20017;-82
2022/08/20 17:06:28;;;;;;;7.35;2.40;;;;;;;;;;10466372;28;20492;-82
2022/08/20 17:11:31;;;;;;;6.20;2.00;;;;;;;;;;10454509;28;20039;-82
2022/08/20 17:16:35;;;;;;;4.15;1.90;;;;;;;;;;10461445;28;20163;-82
2022/08/20 17:21:37;;;;;;;4.93;2.03;;;;;;;;;;10463918;28;20456;-81
2022/08/20 17:26:56;;;;;;;6.57;2.03;;;;;;;;;;10482945;28;20089;-82
2022/08/20 17:31:59;;;;;;;5.30;2.10;;;;;;;;;;10462650;28;20120;-82
2022/08/20 17:37:04;;;;;;;11.82;1.83;;;;;;;;;;10461421;28;20029;-81
2022/08/20 17:42:13;;;;;;;5.78;2.03;;;;;;;;;;10459722;28;20135;-81
2022/08/20 17:47:16;;;;;;;4.90;1.77;;;;;;;;;;10459685;28;20091;-81
2022/08/20 17:52:27;;;;;;;4.35;1.98;;;;;;;;;;10458589;28;20036;-82
2022/08/20 17:57:31;;;;;;;3.67;1.80;;;;;;;;;;10457684;28;20091;-83
2022/08/20 18:02:33;;;;;;;4.80;1.95;;;;;;;;;;10453740;28;20119;-81
2022/08/20 18:07:40;;;;;;;4.45;1.90;;;;;;;;;;10452996;28;20040;-84
2022/08/20 18:12:48;;;;;;;6.18;1.77;;;;;;;;;;10452500;28;20079;-81
2022/08/20 18:18:02;;;;;;;7.72;2.22;;;;;;;;;;10453152;28;20063;-80
2022/08/20 18:23:10;;;;;;;6.28;2.20;;;;;;;;;;10459683;28;20552;-81
2022/08/20 18:28:25;;;;;;;4.30;2.30;;;;;;;;;;10460502;28;20136;-80
2022/08/20 18:33:27;;;;;;;5.00;2.15;;;;;;;;;;10460485;28;20059;-81
2022/08/20 18:38:29;;;;;;;7.22;2.20;;;;;;;;;;10464585;28;20048;-82
2022/08/20 18:43:30;;;;;;;6.82;2.00;;;;;;;;;;10480575;28;20021;-82
2022/08/20 18:48:32;;;;;;;4.32;2.00;;;;;;;;;;10480041;28;20103;-82
2022/08/20 18:53:33;;;;;;;4.35;1.90;;;;;;;;;;10453238;28;20060;-81
2022/08/20 18:58:37;;;;;;;4.30;2.00;;;;;;;;;;10466297;28;20128;-82
2022/08/20 19:03:43;;;;;;;4.40;2.30;;;;;;;;;;10467013;28;20021;-81
2022/08/20 19:08:49;;;;;;;8.43;3.00;;;;;;;;;;10453146;28;20114;-81
2022/08/20 19:14:03;;;;;;;5.75;3.15;;;;;;;;;;10453496;28;20025;-81
2022/08/20 19:19:04;;;;;;;8.23;3.47;;;;;;;;;;10471324;28;20021;-80
2022/08/20 19:24:07;;;;;;;4.30;2.55;;;;;;;;;;10469551;28;20033;-81
